createdAt,value
2018-04-07T00:02:24.709Z,5.03
2018-04-07T00:04:52.911Z,7.00
2018-04-07T00:07:20.372Z,6.30
2018-04-07T00:09:47.838Z,5.00
2018-04-07T00:12:15.275Z,5.73
2018-04-07T00:14:42.756Z,6.77
2018-04-07T00:17:10.221Z,7.97
2018-04-07T00:19:37.666Z,8.13
2018-04-07T00:22:05.113Z,7.17
2018-04-07T00:24:32.585Z,7.97
2018-04-07T00:27:00.039Z,7.33
2018-04-07T00:29:27.473Z,5.00
2018-04-07T00:31:54.949Z,5.80
2018-04-07T00:34:22.407Z,7.73
2018-04-07T00:36:49.856Z,6.77
2018-04-07T00:39:17.328Z,7.73
2018-04-07T00:41:44.791Z,4.83
2018-04-07T00:44:12.221Z,8.00
2018-04-07T00:46:39.692Z,6.90
2018-04-07T00:49:07.148Z,9.53
2018-04-07T00:51:34.586Z,7.87
2018-04-07T00:54:02.035Z,7.70
2018-04-07T00:56:30.234Z,6.27
2018-04-07T00:58:57.659Z,4.97
2018-04-07T01:01:25.154Z,4.77
2018-04-07T01:03:52.604Z,7.13
2018-04-07T01:06:20.064Z,6.33
2018-04-07T01:08:47.520Z,8.17
2018-04-07T01:11:14.977Z,7.00
2018-04-07T01:13:42.436Z,7.27
2018-04-07T01:16:09.889Z,8.30
2018-04-07T01:18:37.321Z,6.37
2018-04-07T01:21:04.785Z,6.80
2018-04-07T01:23:32.223Z,6.43
2018-04-07T01:25:59.691Z,6.77
2018-04-07T01:28:27.136Z,6.37
2018-04-07T01:30:54.577Z,5.53
2018-04-07T01:33:22.055Z,6.73
2018-04-07T01:35:49.473Z,10.87
2018-04-07T01:38:16.928Z,6.40
2018-04-07T01:40:44.340Z,9.13
2018-04-07T01:43:12.536Z,7.97
2018-04-07T01:45:40.744Z,5.97
2018-04-07T01:48:08.176Z,7.10
2018-04-07T01:50:35.703Z,7.10
2018-04-07T01:53:03.186Z,6.67
2018-04-07T01:55:31.373Z,6.87
2018-04-07T01:57:59.576Z,6.97
2018-04-07T02:00:27.016Z,6.87
2018-04-07T02:02:54.504Z,6.50
2018-04-07T02:05:21.960Z,7.43
2018-04-07T02:07:49.411Z,8.33
2018-04-07T02:10:16.874Z,6.23
2018-04-07T02:12:44.353Z,6.50
2018-04-07T02:15:11.891Z,8.97
2018-04-07T02:17:39.341Z,6.90
2018-04-07T02:20:06.760Z,6.53
2018-04-07T02:22:34.974Z,6.10
2018-04-07T02:25:02.453Z,9.43
2018-04-07T02:27:29.952Z,5.30
2018-04-07T02:29:58.193Z,9.17
2018-04-07T02:32:25.636Z,5.47
2018-04-07T02:34:53.084Z,6.90
2018-04-07T02:37:20.520Z,5.83
2018-04-07T02:39:47.940Z,8.60
2018-04-07T02:42:15.453Z,7.27
2018-04-07T02:44:42.911Z,7.20
2018-04-07T02:47:10.338Z,6.93
2018-04-07T02:49:37.767Z,6.03
2018-04-07T02:52:05.250Z,7.73
2018-04-07T02:54:32.680Z,8.83
2018-04-07T02:57:00.109Z,8.33
2018-04-07T02:59:28.336Z,8.33
2018-04-07T03:01:55.766Z,6.90
2018-04-07T03:04:23.237Z,5.97
2018-04-07T03:06:50.672Z,10.03
2018-04-07T03:09:18.946Z,7.67
2018-04-07T03:11:47.137Z,6.53
2018-04-07T03:14:14.623Z,10.20
2018-04-07T03:16:42.072Z,9.07
2018-04-07T03:19:09.560Z,6.73
2018-04-07T03:21:37.088Z,9.60
2018-04-07T03:24:04.540Z,9.23
2018-04-07T03:26:31.963Z,9.97
2018-04-07T03:29:00.208Z,8.77
2018-04-07T03:31:27.745Z,7.67
2018-04-07T03:33:55.172Z,14.23
2018-04-07T03:36:22.616Z,8.67
2018-04-07T03:38:50.809Z,6.67
2018-04-07T03:41:18.286Z,9.07
2018-04-07T03:43:46.524Z,7.90
2018-04-07T03:46:13.945Z,5.80
2018-04-07T03:48:42.137Z,7.47
2018-04-07T03:51:09.639Z,8.50
2018-04-07T03:53:37.091Z,6.23
2018-04-07T03:56:04.604Z,6.33
2018-04-07T03:58:32.040Z,8.27
2018-04-07T04:01:00.268Z,7.80
2018-04-07T04:03:27.684Z,8.00
2018-04-07T04:05:55.129Z,7.33
2018-04-07T04:08:22.548Z,7.20
2018-04-07T04:10:49.997Z,8.10
2018-04-07T04:13:17.419Z,12.67
2018-04-07T04:15:44.884Z,9.90
2018-04-07T04:18:12.312Z,9.63
2018-04-07T04:20:39.740Z,7.07
2018-04-07T04:23:07.940Z,7.43
2018-04-07T04:25:35.368Z,8.87
2018-04-07T04:28:02.892Z,9.13
2018-04-07T04:30:30.325Z,8.43
2018-04-07T04:32:57.762Z,9.33
2018-04-07T04:35:25.969Z,8.20
2018-04-07T04:37:53.428Z,7.70
2018-04-07T04:40:20.880Z,8.60
2018-04-07T04:42:48.317Z,8.27
2018-04-07T04:45:15.752Z,10.80
2018-04-07T04:47:43.984Z,7.23
2018-04-07T04:50:11.549Z,6.17
2018-04-07T04:52:38.979Z,6.73
2018-04-07T04:55:06.411Z,9.33
2018-04-07T04:57:34.611Z,10.07
2018-04-07T05:00:02.085Z,6.83
2018-04-07T05:02:29.552Z,9.80
2018-04-07T05:04:56.997Z,7.23
2018-04-07T05:07:24.516Z,8.73
2018-04-07T05:09:51.892Z,8.10
2018-04-07T05:12:19.354Z,9.23
2018-04-07T05:14:46.817Z,7.60
2018-04-07T05:17:14.275Z,9.03
2018-04-07T05:19:41.727Z,8.47
2018-04-07T05:22:09.185Z,11.73
2018-04-07T05:24:36.620Z,10.47
2018-04-07T05:27:04.133Z,6.90
2018-04-07T05:29:31.550Z,8.30
2018-04-07T05:31:58.973Z,8.87
2018-04-07T05:34:27.185Z,11.53
2018-04-07T05:36:54.652Z,11.00
2018-04-07T05:39:22.099Z,7.83
2018-04-07T05:41:49.532Z,9.00
2018-04-07T05:44:17.038Z,9.37
2018-04-07T05:46:44.471Z,7.07
2018-04-07T05:49:11.932Z,7.77
2018-04-07T05:51:39.395Z,8.30
2018-04-07T05:54:07.904Z,12.47
2018-04-07T05:56:35.331Z,9.13
2018-04-07T05:59:02.761Z,8.57
2018-04-07T06:01:30.189Z,9.37
2018-04-07T06:03:57.710Z,8.90
2018-04-07T06:06:25.154Z,9.20
2018-04-07T06:08:52.568Z,7.43
2018-04-07T06:11:20.788Z,7.10
2018-04-07T06:13:48.218Z,8.37
2018-04-07T06:16:15.704Z,9.00
2018-04-07T06:18:43.255Z,10.90
2018-04-07T06:21:10.726Z,9.13
2018-04-07T06:23:38.205Z,9.63
2018-04-07T06:26:05.625Z,8.83
2018-04-07T06:28:33.097Z,9.77
2018-04-07T06:31:00.544Z,8.23
2018-04-07T06:33:28.022Z,10.77
2018-04-07T06:35:55.438Z,9.17
2018-04-07T06:38:22.865Z,11.10
2018-04-07T06:40:50.380Z,9.67
2018-04-07T06:43:17.852Z,9.10
2018-04-07T06:45:45.298Z,10.60
2018-04-07T06:48:12.744Z,7.80
2018-04-07T06:50:40.190Z,15.60
2018-04-07T06:53:07.612Z,9.47
2018-04-07T06:55:40.121Z,8.67
2018-04-07T06:58:07.544Z,9.90
2018-04-07T07:00:35.778Z,10.90
2018-04-07T07:03:03.223Z,7.43
2018-04-07T07:05:30.653Z,9.07
2018-04-07T07:07:58.914Z,8.97
2018-04-07T07:10:26.371Z,8.20
2018-04-07T07:12:53.880Z,10.03
2018-04-07T07:15:21.318Z,10.67
2018-04-07T07:17:48.768Z,11.57
2018-04-07T07:20:16.965Z,7.80
2018-04-07T07:22:44.400Z,11.23
2018-04-07T07:25:11.850Z,9.77
2018-04-07T07:27:40.070Z,10.63
2018-04-07T07:30:07.509Z,12.27
2018-04-07T07:32:34.965Z,10.10
2018-04-07T07:35:02.390Z,7.93
2018-04-07T07:37:30.597Z,11.03
2018-04-07T07:39:58.077Z,8.70
2018-04-07T07:42:25.524Z,9.80
2018-04-07T07:44:52.956Z,9.13
2018-04-07T07:47:20.426Z,10.00
2018-04-07T07:49:47.899Z,12.40
2018-04-07T07:52:15.361Z,34.30
2018-04-07T07:54:42.902Z,12.30
2018-04-07T07:57:10.371Z,9.57
2018-04-07T07:59:37.797Z,10.80
2018-04-07T08:02:05.295Z,9.77
2018-04-07T08:04:32.721Z,8.47
2018-04-07T08:07:00.157Z,11.53
2018-04-07T08:09:27.632Z,16.23
2018-04-07T08:11:55.072Z,10.83
2018-04-07T08:14:22.510Z,10.17
2018-04-07T08:16:50.725Z,11.73
2018-04-07T08:19:18.176Z,10.00
2018-04-07T08:21:45.636Z,11.43
2018-04-07T08:24:13.093Z,9.43
2018-04-07T08:26:40.548Z,7.90
2018-04-07T08:29:07.989Z,10.73
2018-04-07T08:31:35.435Z,10.87
2018-04-07T08:34:02.890Z,11.57
2018-04-07T08:36:31.090Z,14.00
2018-04-07T08:38:58.542Z,11.10
2018-04-07T08:41:25.981Z,9.80
2018-04-07T08:43:54.176Z,12.40
2018-04-07T08:46:21.633Z,10.53
2018-04-07T08:48:49.421Z,12.53
2018-04-07T08:51:16.833Z,14.13
2018-04-07T08:53:45.040Z,12.43
2018-04-07T08:56:12.499Z,11.20
2018-04-07T08:58:39.934Z,9.40
2018-04-07T09:01:07.812Z,12.30
2018-04-07T09:03:35.226Z,11.37
2018-04-07T09:06:03.444Z,12.00
2018-04-07T09:08:30.932Z,10.87
2018-04-07T09:10:58.373Z,12.10
2018-04-07T09:13:25.813Z,13.77
2018-04-07T09:15:53.285Z,12.10
2018-04-07T09:18:20.727Z,10.93
2018-04-07T09:20:48.165Z,14.53
2018-04-07T09:23:16.378Z,10.57
2018-04-07T09:25:43.876Z,13.07
2018-04-07T09:28:12.093Z,15.67
2018-04-07T09:30:39.558Z,14.00
2018-04-07T09:33:07.006Z,10.57
2018-04-07T09:35:34.481Z,10.47
2018-04-07T09:38:01.941Z,13.77
2018-04-07T09:40:29.587Z,12.73
2018-04-07T09:42:57.001Z,14.37
2018-04-07T09:45:25.228Z,12.57
2018-04-07T09:47:52.673Z,12.23
2018-04-07T09:50:20.275Z,11.23
2018-04-07T09:52:47.806Z,14.73
2018-04-07T09:55:15.248Z,15.30
2018-04-07T09:57:42.704Z,18.43
2018-04-07T10:00:10.148Z,13.47
2018-04-07T10:02:37.576Z,13.57
2018-04-07T10:05:06.070Z,15.37
2018-04-07T10:07:33.512Z,15.53
2018-04-07T10:10:01.048Z,21.23
2018-04-07T10:12:28.482Z,11.07
2018-04-07T10:14:55.952Z,12.97
2018-04-07T10:17:23.390Z,18.37
2018-04-07T10:19:50.885Z,16.37
2018-04-07T10:22:18.324Z,12.23
2018-04-07T10:24:45.802Z,13.30
2018-04-07T10:27:13.254Z,14.80
2018-04-07T10:29:40.800Z,14.13
2018-04-07T10:32:08.241Z,14.83
2018-04-07T10:34:35.700Z,15.23
2018-04-07T10:37:03.166Z,17.00
2018-04-07T10:39:30.668Z,13.17
2018-04-07T10:41:58.105Z,11.67
2018-04-07T10:44:25.554Z,13.07
2018-04-07T10:46:52.992Z,14.07
2018-04-07T10:49:20.456Z,12.50
2018-04-07T10:51:47.895Z,14.20
2018-04-07T10:54:15.395Z,12.70
2018-04-07T10:56:42.915Z,13.50
2018-04-07T10:59:10.368Z,13.63
2018-04-07T11:01:37.797Z,11.90
2018-04-07T11:04:05.299Z,13.77
2018-04-07T11:06:32.745Z,14.10
2018-04-07T11:09:00.192Z,11.27
2018-04-07T11:11:27.651Z,11.73
2018-04-07T11:13:55.140Z,17.53
2018-04-07T11:16:22.576Z,11.10
2018-04-07T11:18:50.014Z,12.18
2018-04-07T11:21:17.477Z,12.63
2018-04-07T11:23:44.968Z,14.00
2018-04-07T11:26:12.418Z,11.50
2018-04-07T11:28:39.961Z,10.95
2018-04-07T11:31:07.395Z,13.48
2018-04-07T11:33:34.886Z,15.18
2018-04-07T11:36:03.309Z,13.65
2018-04-07T11:38:31.500Z,15.00
2018-04-07T11:40:58.932Z,12.77
2018-04-07T11:43:27.164Z,16.80
2018-04-07T11:45:54.618Z,18.12
2018-04-07T11:48:22.052Z,14.25
2018-04-07T11:50:49.613Z,14.65
2018-04-07T11:53:17.136Z,16.00
2018-04-07T11:55:44.569Z,15.05
2018-04-07T11:58:12.116Z,15.13
2018-04-07T12:00:39.577Z,19.85
2018-04-07T12:03:07.121Z,15.23
2018-04-07T12:05:34.628Z,13.50
2018-04-07T12:08:02.072Z,16.48
2018-04-07T12:10:29.625Z,14.27
2018-04-07T12:12:57.096Z,15.50
2018-04-07T12:15:24.651Z,14.75
2018-04-07T12:17:52.086Z,15.15
2018-04-07T12:20:19.526Z,16.80
2018-04-07T12:22:46.957Z,13.62
2018-04-07T12:25:15.155Z,13.32
2018-04-07T12:27:42.761Z,14.27
2018-04-07T12:30:10.284Z,15.85
2018-04-07T12:32:37.766Z,15.10
2018-04-07T12:35:05.304Z,14.95
2018-04-07T12:37:32.737Z,12.48
2018-04-07T12:40:00.226Z,13.93
2018-04-07T12:42:27.665Z,17.67
2018-04-07T12:44:55.132Z,14.65
2018-04-07T12:47:22.569Z,15.73
2018-04-07T12:49:50.000Z,13.10
2018-04-07T12:52:18.237Z,14.32
2018-04-07T12:54:45.658Z,13.38
2018-04-07T12:57:13.100Z,13.68
2018-04-07T12:59:40.544Z,17.02
2018-04-07T13:02:08.876Z,13.98
2018-04-07T13:04:36.314Z,16.33
2018-04-07T13:07:03.853Z,16.00
2018-04-07T13:09:31.231Z,16.25
2018-04-07T13:11:58.685Z,17.10
2018-04-07T13:14:26.144Z,16.12
2018-04-07T13:16:53.585Z,13.73
2018-04-07T13:19:21.036Z,15.05
2018-04-07T13:21:48.528Z,15.40
2018-04-07T13:24:15.976Z,16.75
2018-04-07T13:26:43.460Z,13.82
2018-04-07T13:29:11.002Z,10.65
2018-04-07T13:31:38.451Z,15.13
2018-04-07T13:34:05.904Z,12.70
2018-04-07T13:36:33.360Z,13.98
2018-04-07T13:39:00.820Z,12.23
2018-04-07T13:41:28.293Z,14.40
2018-04-07T13:43:55.731Z,12.27
2018-04-07T13:46:23.203Z,12.18
2018-04-07T13:48:50.638Z,14.80
2018-04-07T13:51:18.084Z,14.85
2018-04-07T13:53:46.300Z,16.10
2018-04-07T13:56:13.744Z,18.02
2018-04-07T13:58:41.176Z,12.98
2018-04-07T14:01:08.620Z,12.55
2018-04-07T14:03:36.940Z,13.85
2018-04-07T14:06:04.382Z,14.52
2018-04-07T14:08:31.877Z,11.73
2018-04-07T14:10:59.417Z,10.38
2018-04-07T14:13:26.869Z,11.12
2018-04-07T14:15:54.296Z,9.35
2018-04-07T14:18:21.740Z,9.10
2018-04-07T14:20:49.960Z,11.30
2018-04-07T14:23:17.397Z,7.45
2018-04-07T14:25:44.863Z,9.57
2018-04-07T14:28:12.280Z,7.80
2018-04-07T14:30:40.634Z,10.38
2018-04-07T14:33:08.167Z,5.68
2018-04-07T14:35:35.627Z,7.85
2018-04-07T14:38:03.154Z,10.93
2018-04-07T14:40:31.359Z,9.23
2018-04-07T14:42:58.804Z,5.97
2018-04-07T14:45:26.259Z,9.43
2018-04-07T14:47:53.684Z,8.60
2018-04-07T14:50:21.906Z,7.28
2018-04-07T14:52:50.405Z,10.45
2018-04-07T14:55:17.832Z,8.00
2018-04-07T14:57:46.939Z,10.35
2018-04-07T15:00:14.369Z,9.90
2018-04-07T15:02:41.864Z,10.05
2018-04-07T15:05:09.306Z,8.50
2018-04-07T15:07:36.749Z,8.48
2018-04-07T15:10:04.200Z,7.57
2018-04-07T15:12:31.631Z,10.43
2018-04-07T15:14:59.820Z,6.57
2018-04-07T15:17:27.264Z,8.15
2018-04-07T15:19:55.460Z,6.15
2018-04-07T15:22:22.892Z,7.20
2018-04-07T15:24:51.107Z,6.18
2018-04-07T15:27:18.614Z,10.13
2018-04-07T15:29:46.860Z,8.45
2018-04-07T15:32:14.350Z,5.68
2018-04-07T15:34:42.559Z,9.75
2018-04-07T15:37:10.009Z,8.77
2018-04-07T15:39:37.452Z,4.57
2018-04-07T15:42:05.677Z,4.32
2018-04-07T15:44:33.098Z,8.73
2018-04-07T15:47:00.552Z,10.55
2018-04-07T15:49:28.040Z,6.35
2018-04-07T15:51:55.466Z,6.53
2018-04-07T15:54:22.948Z,7.55
2018-04-07T15:56:50.409Z,6.28
2018-04-07T15:59:17.915Z,7.87
2018-04-07T16:01:45.338Z,10.48
2018-04-07T16:04:12.781Z,4.35
2018-04-07T16:06:40.272Z,7.18
2018-04-07T16:09:07.683Z,9.10
2018-04-07T16:11:35.110Z,8.82
2018-04-07T16:14:03.352Z,9.93
2018-04-07T16:16:32.316Z,6.45
2018-04-07T16:18:59.740Z,5.68
2018-04-07T16:21:27.939Z,7.97
2018-04-07T16:23:55.380Z,9.30
2018-04-07T16:26:22.813Z,8.07
2018-04-07T16:28:51.026Z,6.05
2018-04-07T16:31:18.501Z,6.53
2018-04-07T16:33:45.933Z,7.37
2018-04-07T16:36:13.368Z,5.97
2018-04-07T16:38:41.580Z,5.30
2018-04-07T16:41:09.052Z,9.13
2018-04-07T16:43:36.477Z,9.80
2018-04-07T16:46:03.976Z,5.65
2018-04-07T16:48:31.546Z,6.25
2018-04-07T16:50:58.993Z,6.12
2018-04-07T16:53:26.441Z,6.80
2018-04-07T16:55:53.865Z,8.40
2018-04-07T16:58:21.326Z,9.35
2018-04-07T17:00:48.784Z,13.40
2018-04-07T17:03:16.246Z,7.07
2018-04-07T17:05:43.696Z,9.90
2018-04-07T17:08:11.142Z,7.03
2018-04-07T17:10:38.643Z,6.90
2018-04-07T17:13:06.063Z,8.98
2018-04-07T17:15:33.505Z,5.80
2018-04-07T17:18:01.744Z,5.45
2018-04-07T17:20:29.172Z,6.18
2018-04-07T17:22:56.627Z,6.40
2018-04-07T17:25:24.067Z,8.13
2018-04-07T17:27:51.657Z,7.80
2018-04-07T17:30:19.255Z,6.60
2018-04-07T17:32:46.777Z,4.20
2018-04-07T17:35:14.324Z,6.25
2018-04-07T17:37:41.760Z,8.05
2018-04-07T17:40:09.267Z,7.55
2018-04-07T17:42:36.704Z,7.72
2018-04-07T17:45:04.148Z,8.50
2018-04-07T17:47:31.588Z,10.48
2018-04-07T17:49:59.036Z,12.73
2018-04-07T17:52:27.240Z,9.18
2018-04-07T17:54:54.710Z,4.70
2018-04-07T17:57:22.138Z,6.93
2018-04-07T17:59:49.612Z,6.37
2018-04-07T18:02:17.041Z,12.40
2018-04-07T18:04:44.491Z,6.40
2018-04-07T18:07:12.704Z,6.82
2018-04-07T18:09:40.140Z,4.55
2018-04-07T18:12:07.573Z,4.50
2018-04-07T18:14:35.804Z,12.82
2018-04-07T18:17:03.257Z,8.32
2018-04-07T18:19:30.693Z,6.10
2018-04-07T18:21:58.182Z,6.90
2018-04-07T18:24:25.610Z,9.98
2018-04-07T18:26:53.085Z,8.43
2018-04-07T18:29:20.557Z,6.22
2018-04-07T18:31:47.992Z,10.50
2018-04-07T18:34:15.426Z,11.57
2018-04-07T18:36:42.908Z,8.00
2018-04-07T18:39:10.341Z,6.93
2018-04-07T18:41:37.808Z,8.68
2018-04-07T18:44:06.005Z,8.30
2018-04-07T18:46:33.448Z,18.15
2018-04-07T18:49:00.885Z,23.67
2018-04-07T18:51:28.333Z,12.20
2018-04-07T18:53:55.828Z,13.60
2018-04-07T18:56:23.290Z,11.55
2018-04-07T18:58:50.724Z,13.10
2018-04-07T19:01:18.184Z,10.83
2018-04-07T19:03:45.665Z,8.47
2018-04-07T19:06:13.120Z,10.00
2018-04-07T19:08:40.545Z,14.10
2018-04-07T19:11:07.981Z,12.00
2018-04-07T19:13:36.190Z,9.17
2018-04-07T19:16:03.647Z,12.97
2018-04-07T19:18:31.119Z,15.93
2018-04-07T19:20:58.570Z,20.30
2018-04-07T19:23:26.000Z,25.30
2018-04-07T19:25:53.444Z,16.67
2018-04-07T19:28:21.673Z,13.30
2018-04-07T19:30:49.130Z,16.33
2018-04-07T19:33:16.581Z,14.33
2018-04-07T19:35:44.041Z,16.53
2018-04-07T19:38:11.481Z,14.70
2018-04-07T19:40:38.905Z,19.37
2018-04-07T19:43:07.113Z,12.07
2018-04-07T19:45:34.552Z,15.73
2018-04-07T19:48:01.995Z,14.40
2018-04-07T19:50:30.312Z,16.00
2018-04-07T19:52:57.777Z,14.83
2018-04-07T19:55:25.204Z,14.73
2018-04-07T19:57:52.652Z,14.17
2018-04-07T20:00:20.173Z,18.03
2018-04-07T20:02:47.621Z,27.53
2018-04-07T20:05:15.060Z,25.93
2018-04-07T20:07:42.498Z,21.00
2018-04-07T20:10:09.972Z,24.60
2018-04-07T20:12:37.421Z,13.47
2018-04-07T20:15:05.011Z,16.67
2018-04-07T20:17:32.452Z,16.17
2018-04-07T20:19:59.898Z,18.87
2018-04-07T20:22:27.352Z,24.90
2018-04-07T20:24:54.821Z,23.73
2018-04-07T20:27:22.297Z,20.10
2018-04-07T20:29:49.726Z,28.10
2018-04-07T20:32:17.175Z,20.70
2018-04-07T20:34:44.664Z,17.97
2018-04-07T20:37:12.096Z,22.57
2018-04-07T20:39:39.546Z,18.60
2018-04-07T20:42:27.669Z,31.57
2018-04-07T20:44:55.880Z,22.53
2018-04-07T20:47:23.349Z,22.13
2018-04-07T20:49:50.774Z,21.90
2018-04-07T20:52:18.260Z,17.60
2018-04-07T20:54:45.691Z,16.60
2018-04-07T20:57:13.165Z,11.07
2018-04-07T20:59:40.606Z,15.27
2018-04-07T21:02:08.118Z,9.07
2018-04-07T21:04:35.559Z,11.63
2018-04-07T21:07:03.131Z,13.00
2018-04-07T21:09:30.557Z,11.83
2018-04-07T21:11:58.004Z,9.13
2018-04-07T21:14:25.464Z,5.37
2018-04-07T21:16:52.926Z,9.23
2018-04-07T21:19:20.370Z,11.43
2018-04-07T21:21:47.796Z,8.10
2018-04-07T21:24:15.992Z,10.90
2018-04-07T21:26:43.476Z,14.53
2018-04-07T21:29:10.930Z,13.77
2018-04-07T21:31:38.385Z,11.93
2018-04-07T21:34:05.839Z,9.23
2018-04-07T21:36:33.271Z,10.43
2018-04-07T21:39:00.708Z,10.60
2018-04-07T21:41:28.920Z,11.60
2018-04-07T21:43:56.353Z,10.03
2018-04-07T21:46:23.988Z,20.73
2018-04-07T21:48:51.430Z,20.93
2018-04-07T21:51:18.887Z,17.13
2018-04-07T21:53:46.421Z,17.43
2018-04-07T21:56:13.872Z,27.83
2018-04-07T21:58:41.304Z,18.77
2018-04-07T22:01:08.749Z,20.90
2018-04-07T22:03:36.966Z,24.37
2018-04-07T22:06:04.396Z,17.00
2018-04-07T22:08:31.852Z,18.45
2018-04-07T22:10:59.297Z,20.23
2018-04-07T22:13:27.550Z,20.27
2018-04-07T22:15:54.976Z,20.23
2018-04-07T22:18:22.413Z,12.50
2018-04-07T22:20:49.936Z,11.97
2018-04-07T22:23:18.139Z,15.23
2018-04-07T22:25:45.623Z,10.17
2018-04-07T22:28:13.068Z,12.20
2018-04-07T22:30:40.499Z,10.67
2018-04-07T22:33:07.947Z,18.83
2018-04-07T22:35:36.153Z,16.37
2018-04-07T22:38:03.650Z,13.50
2018-04-07T22:40:31.141Z,11.80
2018-04-07T22:42:58.616Z,11.10
2018-04-07T22:45:26.156Z,11.60
2018-04-07T22:47:53.600Z,13.60
2018-04-07T22:50:21.046Z,10.63
2018-04-07T22:52:48.476Z,15.13
2018-04-07T22:55:16.688Z,12.47
2018-04-07T22:57:44.134Z,13.20
2018-04-07T23:00:11.621Z,13.57
2018-04-07T23:02:39.694Z,10.50
2018-04-07T23:05:07.128Z,11.87
2018-04-07T23:07:34.608Z,12.83
2018-04-07T23:10:02.049Z,13.80
2018-04-07T23:12:29.521Z,15.00
2018-04-07T23:14:56.955Z,10.37
2018-04-07T23:17:24.437Z,13.37
2018-04-07T23:19:51.877Z,21.70
2018-04-07T23:22:19.315Z,21.40
2018-04-07T23:24:46.760Z,23.08
2018-04-07T23:27:14.192Z,23.73
2018-04-07T23:29:41.629Z,20.37
2018-04-07T23:32:09.092Z,20.10
2018-04-07T23:34:36.511Z,15.07
2018-04-07T23:37:03.984Z,10.80
2018-04-07T23:39:31.444Z,13.63
2018-04-07T23:41:58.915Z,13.60
2018-04-07T23:44:26.472Z,9.53
2018-04-07T23:46:54.015Z,10.57
2018-04-07T23:49:21.441Z,10.67
2018-04-07T23:51:48.872Z,8.83
2018-04-07T23:54:17.093Z,13.10
2018-04-07T23:56:44.580Z,11.67
2018-04-07T23:59:12.120Z,10.60
